Time;durP1;ratioP1;P1;durP2;ratioP2;P2;SDS_P1;SDS_P2;PMS_P1;PMS_P2;Temp;Humidity;BMP_temperature;BMP_pressure;BME280_temperature;BME280_humidity;BME280_pressure;Samples;Min_cycle;Max_cycle;Signal;HPM_P1;HPM_P2
2022/08/09 00:00:08;;;;;;;4.00;3.60;;;25.50;91.20;;;;;;6160228;23;20183;-92
2022/08/09 00:02:34;;;;;;;3.97;3.43;;;25.40;91.10;;;;;;6134202;23;20162;-92
2022/08/09 00:04:59;;;;;;;4.53;4.13;;;25.40;91.10;;;;;;6134090;23;20421;-92
2022/08/09 00:07:25;;;;;;;4.47;3.90;;;25.40;91.10;;;;;;6139448;23;20190;-96
2022/08/09 00:09:51;;;;;;;5.27;4.10;;;25.40;91.10;;;;;;6134574;23;20416;-96
2022/08/09 00:12:16;;;;;;;4.90;4.47;;;25.30;91.10;;;;;;6163359;23;20214;-96
2022/08/09 00:14:42;;;;;;;5.83;4.60;;;25.30;91.20;;;;;;6135723;23;20186;-92
2022/08/09 00:17:08;;;;;;;8.03;5.37;;;25.30;91.20;;;;;;6134321;23;20631;-92
2022/08/09 00:19:33;;;;;;;4.50;4.10;;;25.30;91.20;;;;;;6133834;23;20197;-96
2022/08/09 00:21:59;;;;;;;5.10;3.90;;;25.30;91.10;;;;;;6134170;23;20155;-92
2022/08/09 00:24:25;;;;;;;6.43;4.67;;;25.30;91.10;;;;;;6134608;23;20182;-92
2022/08/09 00:26:51;;;;;;;4.50;3.97;;;25.30;91.10;;;;;;6147854;23;20169;-93
2022/08/09 00:29:17;;;;;;;4.53;4.10;;;25.30;91.10;;;;;;6132758;23;20405;-92
2022/08/09 00:31:42;;;;;;;5.60;4.63;;;25.30;91.10;;;;;;6132954;23;20671;-92
2022/08/09 00:34:08;;;;;;;6.50;4.80;;;25.30;91.10;;;;;;6133540;23;20166;-96
2022/08/09 00:36:34;;;;;;;8.13;4.80;;;25.30;91.10;;;;;;6133437;23;20477;-93
2022/08/09 00:39:00;;;;;;;8.80;4.97;;;25.30;91.10;;;;;;6132989;23;20169;-96
2022/08/09 00:41:26;;;;;;;5.73;4.30;;;25.20;91.10;;;;;;6134805;23;20170;-96
2022/08/09 00:43:52;;;;;;;6.20;4.90;;;25.20;91.10;;;;;;6138887;23;20393;-94
2022/08/09 00:46:18;;;;;;;6.60;4.90;;;25.20;91.10;;;;;;6136722;23;20200;-93
2022/08/09 00:48:44;;;;;;;5.97;4.60;;;25.10;91.30;;;;;;6136204;23;20166;-92
2022/08/09 00:51:10;;;;;;;5.80;4.73;;;25.10;91.40;;;;;;6134759;23;20972;-93
2022/08/09 00:53:37;;;;;;;6.73;4.97;;;25.00;91.60;;;;;;6150108;23;20378;-92
2022/08/09 00:56:04;;;;;;;7.23;5.87;;;25.00;91.80;;;;;;6168653;23;20209;-92
2022/08/09 00:58:30;;;;;;;6.93;5.10;;;25.00;92.30;;;;;;6132870;23;20402;-92
2022/08/09 01:00:57;;;;;;;7.30;5.60;;;24.90;92.60;;;;;;6132984;23;20424;-92
2022/08/09 01:03:48;;;;;;;7.67;6.20;;;24.80;93.00;;;;;;6133307;23;20163;-96
2022/08/09 01:06:26;;;;;;;5.70;4.73;;;24.80;93.30;;;;;;6146576;23;20452;-96
2022/08/09 01:09:21;;;;;;;6.87;5.70;;;24.70;93.50;;;;;;6157959;23;20407;-96
2022/08/09 01:12:06;;;;;;;6.53;5.77;;;24.60;93.80;;;;;;6154488;23;20448;-92
2022/08/09 01:14:40;;;;;;;5.07;4.57;;;24.60;94.10;;;;;;6158087;23;20432;-96
2022/08/09 01:17:18;;;;;;;6.17;5.30;;;24.50;94.30;;;;;;6157566;23;20372;-96
2022/08/09 01:19:50;;;;;;;5.60;4.90;;;24.50;94.40;;;;;;6157488;23;20428;-96
2022/08/09 01:22:43;;;;;;;7.73;6.60;;;24.40;94.70;;;;;;6158856;23;20901;-91
2022/08/09 01:25:19;;;;;;;7.30;6.50;;;24.40;94.90;;;;;;6157671;23;20424;-92
2022/08/09 01:27:50;;;;;;;6.70;6.00;;;24.30;94.80;;;;;;6157762;23;20892;-96
2022/08/09 01:30:16;;;;;;;9.70;6.40;;;24.20;95.10;;;;;;6157139;23;20443;-96
2022/08/09 01:32:46;;;;;;;10.60;6.50;;;24.10;95.40;;;;;;6159596;23;20375;-96
2022/08/09 01:35:33;;;;;;;8.03;6.37;;;24.00;95.70;;;;;;6157503;23;20425;-96
2022/08/09 01:38:03;;;;;;;8.00;6.83;;;23.90;96.30;;;;;;6157333;23;20394;-91
2022/08/09 01:40:32;;;;;;;7.97;6.50;;;23.70;96.60;;;;;;6158026;23;20448;-96
2022/08/09 01:42:58;;;;;;;7.43;5.60;;;23.60;96.80;;;;;;6158469;23;20374;-96
2022/08/09 01:45:25;;;;;;;8.50;6.40;;;23.50;97.10;;;;;;6159062;23;20427;-91
2022/08/09 01:47:52;;;;;;;8.30;5.43;;;23.40;97.50;;;;;;6157573;23;20468;-92
2022/08/09 01:50:22;;;;;;;8.73;7.20;;;23.30;97.80;;;;;;6157972;23;20532;-92
2022/08/09 01:52:48;;;;;;;8.43;7.20;;;23.20;98.30;;;;;;6163168;23;20365;-92
2022/08/09 01:55:15;;;;;;;8.67;6.90;;;23.10;99.00;;;;;;6168464;23;20469;-91
2022/08/09 01:57:45;;;;;;;9.70;7.30;;;23.10;99.80;;;;;;6163349;23;20366;-96
2022/08/09 02:00:12;;;;;;;8.67;7.50;;;23.10;99.90;;;;;;6174357;23;20400;-96
2022/08/09 02:02:44;;;;;;;9.00;7.27;;;23.10;99.90;;;;;;6159945;23;20390;-91
2022/08/09 02:05:12;;;;;;;10.10;7.07;;;23.10;99.90;;;;;;6167530;23;20444;-95
2022/08/09 02:07:50;;;;;;;9.13;6.57;;;23.20;99.90;;;;;;6167999;23;20879;-91
2022/08/09 02:10:22;;;;;;;9.20;7.50;;;23.20;99.90;;;;;;6175012;23;20436;-92
2022/08/09 02:12:49;;;;;;;11.80;7.20;;;23.20;99.90;;;;;;6172671;23;20388;-96
2022/08/09 02:15:18;;;;;;;9.73;6.97;;;23.20;99.90;;;;;;6156586;23;20413;-94
2022/08/09 02:17:46;;;;;;;9.40;7.40;;;23.20;99.90;;;;;;6157917;23;20371;-96
2022/08/09 02:20:12;;;;;;;9.57;7.10;;;23.10;99.90;;;;;;6157061;23;20417;-91
2022/08/09 02:22:49;;;;;;;9.83;8.60;;;23.20;99.90;;;;;;6156947;23;20416;-95
2022/08/09 02:25:23;;;;;;;10.50;8.10;;;23.10;99.90;;;;;;6158092;23;20440;-91
2022/08/09 02:27:53;;;;;;;12.87;8.23;;;23.10;99.90;;;;;;6163593;23;20385;-95
2022/08/09 02:30:19;;;;;;;9.83;6.57;;;23.10;99.90;;;;;;6161420;23;20499;-96
2022/08/09 02:32:47;;;;;;;8.13;6.83;;;23.10;99.90;;;;;;6157204;23;20378;-91
2022/08/09 02:35:24;;;;;;;11.10;7.70;;;23.10;99.90;;;;;;6158537;23;20472;-96
2022/08/09 02:37:54;;;;;;;11.97;8.20;;;23.10;99.90;;;;;;6158696;23;20396;-91
2022/08/09 02:40:21;;;;;;;10.00;7.80;;;23.00;99.90;;;;;;6159579;23;20945;-91
2022/08/09 02:42:50;;;;;;;11.33;7.80;;;23.10;99.90;;;;;;6163942;23;20858;-91
2022/08/09 02:45:31;;;;;;;10.10;8.03;;;23.00;99.90;;;;;;6162168;23;20480;-92
2022/08/09 02:48:02;;;;;;;11.20;7.63;;;23.00;99.90;;;;;;6164469;23;20389;-96
2022/08/09 02:50:33;;;;;;;11.60;8.40;;;23.00;99.90;;;;;;6161129;23;20436;-91
2022/08/09 02:53:03;;;;;;;7.67;6.87;;;23.00;99.90;;;;;;6160466;23;20381;-92
2022/08/09 02:55:32;;;;;;;11.00;7.97;;;23.00;99.90;;;;;;6158174;23;20417;-92
2022/08/09 02:57:59;;;;;;;9.20;7.83;;;23.00;99.90;;;;;;6161472;23;20850;-96
2022/08/09 03:00:26;;;;;;;11.73;9.13;;;23.00;99.90;;;;;;6162398;23;20436;-91
2022/08/09 03:02:54;;;;;;;11.10;8.43;;;23.00;99.90;;;;;;6159952;23;20374;-96
2022/08/09 03:05:21;;;;;;;13.90;8.63;;;23.00;99.90;;;;;;6162890;23;20445;-91
2022/08/09 03:07:49;;;;;;;11.67;8.60;;;23.00;99.90;;;;;;6168079;23;20788;-92
2022/08/09 03:10:15;;;;;;;9.47;7.47;;;23.00;99.90;;;;;;6172658;23;20500;-92
2022/08/09 03:12:43;;;;;;;10.20;8.67;;;23.00;99.90;;;;;;6171824;23;20393;-96
2022/08/09 03:15:11;;;;;;;9.30;7.80;;;23.00;99.90;;;;;;6168842;23;20425;-94
2022/08/09 03:17:37;;;;;;;13.20;8.40;;;23.00;99.90;;;;;;6162398;23;20970;-92
2022/08/09 03:20:06;;;;;;;9.73;8.53;;;23.00;99.90;;;;;;6163505;23;20429;-91
2022/08/09 03:22:35;;;;;;;11.53;8.80;;;23.00;99.90;;;;;;6161893;23;20413;-96
2022/08/09 03:25:01;;;;;;;11.00;8.40;;;23.00;99.90;;;;;;6161135;23;20425;-96
2022/08/09 03:27:28;;;;;;;11.00;9.57;;;23.00;99.90;;;;;;6159609;23;20867;-91
2022/08/09 03:29:55;;;;;;;10.17;8.30;;;23.00;99.90;;;;;;6158848;23;20416;-96
2022/08/09 03:32:22;;;;;;;11.13;8.90;;;23.00;99.90;;;;;;6156089;23;20399;-96
2022/08/09 03:34:48;;;;;;;9.70;8.53;;;23.10;99.90;;;;;;6157764;23;20443;-92
2022/08/09 03:37:14;;;;;;;9.23;7.87;;;23.10;99.90;;;;;;6158144;23;20874;-92
2022/08/09 03:39:40;;;;;;;10.07;7.83;;;23.10;99.90;;;;;;6158734;23;20226;-96
2022/08/09 03:42:05;;;;;;;11.17;8.40;;;23.00;99.90;;;;;;6162501;23;20390;-91
2022/08/09 03:44:31;;;;;;;10.30;7.80;;;23.00;99.90;;;;;;6166008;23;20191;-92
2022/08/09 03:46:57;;;;;;;11.40;7.20;;;23.00;99.90;;;;;;6162882;23;20194;-96
2022/08/09 03:49:26;;;;;;;8.47;7.60;;;23.00;99.90;;;;;;6159834;23;20621;-96
2022/08/09 03:51:57;;;;;;;11.27;7.37;;;23.00;99.90;;;;;;6163198;23;20188;-96
2022/08/09 03:54:25;;;;;;;8.83;7.93;;;23.00;99.90;;;;;;6162964;23;20484;-96
2022/08/09 03:56:52;;;;;;;15.27;8.20;;;23.00;99.90;;;;;;6159795;23;20733;-91
2022/08/09 03:59:18;;;;;;;9.13;7.73;;;23.00;99.90;;;;;;6160276;23;20422;-96
2022/08/09 04:01:45;;;;;;;10.73;8.23;;;23.00;99.90;;;;;;6160826;23;20854;-96
2022/08/09 04:04:12;;;;;;;9.77;7.20;;;23.00;99.90;;;;;;6158627;23;20498;-96
2022/08/09 04:06:38;;;;;;;7.40;6.60;;;23.00;99.90;;;;;;6169695;23;20429;-91
2022/08/09 04:09:05;;;;;;;9.90;7.40;;;22.90;99.90;;;;;;6151542;23;20404;-92
2022/08/09 04:12:10;;;;;;;8.00;6.50;;;22.90;99.90;;;;;;6143201;23;20449;-92
2022/08/09 04:14:39;;;;;;;9.67;7.00;;;22.90;99.90;;;;;;6153330;23;20507;-92
2022/08/09 04:17:05;;;;;;;7.40;6.40;;;22.80;99.90;;;;;;6162023;23;20377;-92
2022/08/09 04:19:31;;;;;;;6.93;6.33;;;22.80;99.90;;;;;;6134358;23;20420;-91
2022/08/09 04:21:57;;;;;;;7.90;6.70;;;22.80;99.90;;;;;;6133335;23;20871;-92
2022/08/09 04:24:26;;;;;;;9.97;7.10;;;22.80;99.90;;;;;;6133715;23;20190;-96
2022/08/09 04:26:53;;;;;;;9.17;7.00;;;22.70;99.90;;;;;;6133752;23;20393;-91
2022/08/09 04:29:18;;;;;;;7.57;6.80;;;22.70;99.90;;;;;;6135048;23;20412;-96
2022/08/09 04:31:44;;;;;;;8.53;6.73;;;22.70;99.90;;;;;;6141740;23;20499;-95
2022/08/09 04:34:10;;;;;;;9.57;7.70;;;22.60;99.90;;;;;;6133270;23;20416;-91
2022/08/09 04:36:38;;;;;;;10.13;7.33;;;22.60;99.90;;;;;;6158354;23;20151;-96
2022/08/09 04:39:08;;;;;;;8.80;6.83;;;22.60;99.90;;;;;;6132968;23;20656;-91
2022/08/09 04:41:34;;;;;;;12.90;7.57;;;22.50;99.90;;;;;;6133156;23;20386;-96
2022/08/09 04:44:04;;;;;;;9.90;7.30;;;22.50;99.90;;;;;;6132999;23;20393;-96
2022/08/09 04:46:30;;;;;;;12.37;7.67;;;22.50;99.90;;;;;;6131797;23;20498;-96
2022/08/09 04:48:56;;;;;;;9.47;6.67;;;22.40;99.90;;;;;;6134198;23;20385;-92
2022/08/09 04:51:22;;;;;;;7.70;6.90;;;22.40;99.90;;;;;;6160314;23;20441;-96
2022/08/09 04:53:47;;;;;;;11.20;7.70;;;22.40;99.90;;;;;;6159331;23;20167;-91
2022/08/09 04:56:13;;;;;;;9.07;7.33;;;22.40;99.90;;;;;;6159099;23;20175;-96
2022/08/09 04:58:39;;;;;;;8.63;7.40;;;22.40;99.90;;;;;;6133765;23;20237;-95
2022/08/09 05:01:05;;;;;;;10.20;7.40;;;22.40;99.90;;;;;;6133081;23;20179;-96
2022/08/09 05:03:30;;;;;;;9.60;6.90;;;22.30;99.90;;;;;;6133555;23;20175;-96
2022/08/09 05:05:57;;;;;;;10.73;6.53;;;22.30;99.90;;;;;;6143760;23;20237;-92
2022/08/09 05:08:22;;;;;;;8.40;7.53;;;22.30;99.90;;;;;;6169983;23;20429;-93
2022/08/09 05:10:48;;;;;;;7.83;7.00;;;22.30;99.90;;;;;;6157573;23;20516;-92
2022/08/09 05:13:13;;;;;;;11.13;6.83;;;22.30;99.90;;;;;;6158513;23;20582;-96
2022/08/09 05:15:40;;;;;;;8.63;6.70;;;22.30;99.90;;;;;;6157425;23;20180;-92
2022/08/09 05:18:06;;;;;;;9.17;6.27;;;22.30;99.90;;;;;;6157344;23;20163;-96
2022/08/09 05:20:31;;;;;;;7.47;6.70;;;22.30;99.90;;;;;;6157551;23;20439;-93
2022/08/09 05:22:58;;;;;;;7.40;6.53;;;22.30;99.90;;;;;;6157441;23;20160;-96
2022/08/09 05:25:24;;;;;;;7.63;6.80;;;22.30;99.90;;;;;;6158061;23;20250;-96
2022/08/09 05:27:50;;;;;;;8.03;7.07;;;22.30;99.90;;;;;;6158611;23;20389;-91
2022/08/09 05:30:16;;;;;;;8.77;7.17;;;22.20;99.90;;;;;;6157427;23;20197;-96
2022/08/09 05:32:45;;;;;;;8.30;6.87;;;22.20;99.90;;;;;;6157867;23;20163;-92
2022/08/09 05:35:11;;;;;;;9.23;8.23;;;22.10;99.90;;;;;;6157701;23;20898;-96
2022/08/09 05:37:38;;;;;;;10.20;6.53;;;22.10;99.90;;;;;;6157718;23;20393;-96
2022/08/09 05:40:05;;;;;;;10.27;6.90;;;22.10;99.90;;;;;;6157362;23;20182;-92
2022/08/09 05:42:30;;;;;;;8.17;6.63;;;22.00;99.90;;;;;;6158506;23;20393;-96
2022/08/09 05:44:57;;;;;;;7.10;6.40;;;22.00;99.90;;;;;;6158610;23;20448;-92
2022/08/09 05:47:25;;;;;;;12.63;7.20;;;22.00;99.90;;;;;;6159044;23;20159;-92
2022/08/09 05:49:52;;;;;;;8.40;6.90;;;22.00;99.90;;;;;;6167853;23;20437;-92
2022/08/09 05:52:19;;;;;;;9.10;7.07;;;22.00;99.90;;;;;;6160735;23;20393;-96
2022/08/09 05:54:45;;;;;;;8.80;6.90;;;22.00;99.90;;;;;;6163123;23;20412;-96
2022/08/09 05:57:10;;;;;;;8.30;7.07;;;22.10;99.90;;;;;;6166165;23;20393;-91
2022/08/09 05:59:36;;;;;;;7.90;7.00;;;22.10;99.90;;;;;;6159414;23;20413;-96
2022/08/09 06:02:02;;;;;;;9.67;7.90;;;22.10;99.90;;;;;;6159927;23;20605;-96
2022/08/09 06:04:27;;;;;;;7.60;6.10;;;22.10;99.90;;;;;;6157561;23;20217;-96
2022/08/09 06:06:53;;;;;;;9.33;7.70;;;22.20;99.90;;;;;;6164179;23;20205;-96
2022/08/09 06:09:19;;;;;;;9.40;7.60;;;22.20;99.90;;;;;;6156920;23;20175;-92
2022/08/09 06:11:45;;;;;;;9.13;7.67;;;22.20;99.90;;;;;;6155858;23;20286;-96
2022/08/09 06:14:11;;;;;;;6.97;6.27;;;22.30;99.90;;;;;;6155996;23;20393;-96
2022/08/09 06:16:37;;;;;;;11.90;7.40;;;22.30;99.90;;;;;;6156704;23;20390;-95
2022/08/09 06:19:04;;;;;;;9.37;7.43;;;22.30;99.90;;;;;;6159764;23;20377;-96
2022/08/09 06:21:29;;;;;;;9.60;7.40;;;22.40;99.90;;;;;;6163090;23;20159;-96
2022/08/09 06:23:55;;;;;;;9.17;7.47;;;22.40;99.90;;;;;;6156984;23;20465;-96
2022/08/09 06:26:23;;;;;;;11.40;7.30;;;22.40;99.90;;;;;;6158353;23;20159;-96
2022/08/09 06:28:51;;;;;;;8.93;6.67;;;22.50;99.90;;;;;;6156983;23;20163;-92
2022/08/09 06:31:17;;;;;;;11.10;7.90;;;22.50;99.90;;;;;;6158385;23;20825;-96
2022/08/09 06:33:43;;;;;;;10.57;8.20;;;22.50;99.90;;;;;;6163740;23;20449;-91
2022/08/09 06:36:09;;;;;;;10.70;7.40;;;22.60;99.90;;;;;;6156679;23;20418;-93
2022/08/09 06:38:35;;;;;;;10.23;7.70;;;22.60;99.90;;;;;;6156361;23;20238;-92
2022/08/09 06:41:01;;;;;;;9.40;7.47;;;22.60;99.90;;;;;;6155516;23;20464;-96
2022/08/09 06:43:27;;;;;;;10.37;7.40;;;22.70;99.90;;;;;;6155929;23;20171;-96
2022/08/09 06:45:53;;;;;;;10.13;8.07;;;22.70;99.90;;;;;;6156325;23;20179;-92
2022/08/09 06:48:19;;;;;;;8.80;7.30;;;22.70;99.90;;;;;;6157860;23;20440;-93
2022/08/09 06:50:45;;;;;;;11.40;8.13;;;22.70;99.90;;;;;;6161398;23;20444;-91
2022/08/09 06:53:12;;;;;;;13.07;9.13;;;22.70;99.90;;;;;;6162442;23;20404;-96
2022/08/09 06:55:38;;;;;;;9.10;7.90;;;22.70;99.90;;;;;;6156327;23;20409;-96
2022/08/09 06:58:04;;;;;;;8.50;7.67;;;22.70;99.90;;;;;;6157141;23;20400;-96
2022/08/09 07:00:34;;;;;;;10.50;7.27;;;22.70;99.90;;;;;;6159545;23;20397;-96
2022/08/09 07:03:00;;;;;;;8.67;7.77;;;22.80;99.90;;;;;;6158356;23;20401;-96
2022/08/09 07:05:26;;;;;;;13.00;8.03;;;22.80;99.90;;;;;;6158674;23;20469;-96
2022/08/09 07:07:54;;;;;;;13.13;8.60;;;22.80;99.90;;;;;;6133762;23;20389;-96
2022/08/09 07:10:23;;;;;;;10.40;7.00;;;22.90;99.90;;;;;;6136836;23;20443;-96
2022/08/09 07:12:49;;;;;;;14.53;8.60;;;22.90;99.90;;;;;;6133595;23;20871;-96
2022/08/09 07:15:15;;;;;;;8.60;7.67;;;23.00;99.90;;;;;;6131556;23;20433;-91
2022/08/09 07:17:41;;;;;;;12.63;8.07;;;23.10;99.90;;;;;;6132379;23;20163;-93
2022/08/09 07:20:07;;;;;;;14.60;7.67;;;23.10;99.90;;;;;;6133046;23;20519;-96
2022/08/09 07:22:33;;;;;;;11.57;7.73;;;23.10;99.90;;;;;;6131741;23;20488;-96
2022/08/09 07:24:59;;;;;;;9.87;7.73;;;23.20;99.90;;;;;;6143205;23;20409;-96
2022/08/09 07:27:26;;;;;;;11.40;8.30;;;23.20;99.90;;;;;;6129509;23;20168;-92
2022/08/09 07:29:55;;;;;;;10.63;7.40;;;23.20;99.90;;;;;;6131828;23;20275;-96
2022/08/09 07:32:20;;;;;;;9.43;7.43;;;23.30;99.90;;;;;;6131403;23;20701;-96
2022/08/09 07:34:46;;;;;;;9.10;7.83;;;23.30;99.90;;;;;;6138958;23;20425;-96
2022/08/09 07:37:12;;;;;;;7.83;6.73;;;23.30;99.90;;;;;;6133117;23;20219;-96
2022/08/09 07:39:38;;;;;;;8.60;6.70;;;23.40;99.90;;;;;;6137884;23;20421;-96
2022/08/09 07:42:05;;;;;;;8.60;6.67;;;23.40;99.90;;;;;;6138330;23;20607;-95
2022/08/09 07:44:31;;;;;;;9.47;7.40;;;23.50;99.90;;;;;;6132789;23;20533;-96
2022/08/09 07:46:56;;;;;;;10.90;7.13;;;23.50;99.90;;;;;;6158295;23;21246;-96
2022/08/09 07:49:22;;;;;;;8.17;6.40;;;23.50;99.90;;;;;;6136602;23;20423;-96
2022/08/09 07:52:00;;;;;;;8.57;7.00;;;23.60;99.90;;;;;;6144849;23;20243;-95
2022/08/09 07:54:29;;;;;;;8.33;6.60;;;23.60;99.90;;;;;;6138214;23;20187;-90
2022/08/09 07:56:55;;;;;;;6.87;5.80;;;23.60;99.90;;;;;;6144050;23;20389;-90
2022/08/09 07:59:30;;;;;;;7.57;6.20;;;23.70;99.90;;;;;;6167650;23;20440;-96
2022/08/09 08:01:56;;;;;;;6.90;6.20;;;23.70;99.90;;;;;;6135912;23;20606;-90
2022/08/09 08:04:21;;;;;;;8.53;5.73;;;23.80;99.90;;;;;;6158291;23;20413;-90
2022/08/09 08:06:47;;;;;;;7.90;6.10;;;23.80;99.90;;;;;;6152092;23;20218;-90
2022/08/09 08:09:13;;;;;;;7.43;6.27;;;23.90;99.90;;;;;;6157818;23;20465;-91
2022/08/09 08:11:45;;;;;;;8.83;6.50;;;24.00;99.90;;;;;;6174911;23;20200;-96
2022/08/09 08:14:10;;;;;;;8.87;6.60;;;24.10;99.90;;;;;;6171596;23;20372;-91
2022/08/09 08:16:37;;;;;;;7.40;5.47;;;24.20;99.90;;;;;;6167622;23;20390;-96
2022/08/09 08:19:05;;;;;;;6.20;5.33;;;24.20;99.90;;;;;;6168244;23;20157;-96
2022/08/09 08:21:39;;;;;;;10.20;6.40;;;24.30;99.90;;;;;;6163120;23;20480;-96
2022/08/09 08:24:13;;;;;;;9.10;6.07;;;24.30;99.90;;;;;;6167420;23;20375;-96
2022/08/09 08:26:46;;;;;;;7.67;5.80;;;24.40;99.90;;;;;;6169811;23;20340;-96
2022/08/09 08:29:19;;;;;;;7.70;6.27;;;24.40;99.90;;;;;;6166171;23;20479;-96
2022/08/09 08:31:49;;;;;;;7.67;5.50;;;24.40;99.90;;;;;;6175390;23;20418;-96
2022/08/09 08:34:15;;;;;;;6.43;5.83;;;24.50;99.90;;;;;;6163545;23;20470;-90
2022/08/09 08:36:40;;;;;;;8.43;5.93;;;24.50;99.90;;;;;;6160440;23;20377;-90
2022/08/09 08:39:06;;;;;;;7.30;6.00;;;24.60;99.90;;;;;;6154393;23;20695;-90
2022/08/09 08:41:32;;;;;;;6.77;6.07;;;24.60;99.90;;;;;;6158255;23;20153;-90
2022/08/09 08:43:58;;;;;;;5.80;5.30;;;24.60;99.90;;;;;;6157196;23;20242;-90
2022/08/09 08:46:32;;;;;;;8.07;6.10;;;24.70;99.90;;;;;;6174151;23;20408;-96
2022/08/09 08:49:01;;;;;;;6.20;5.50;;;24.70;99.90;;;;;;6165123;23;20217;-90
2022/08/09 08:51:30;;;;;;;15.00;6.00;;;24.70;99.90;;;;;;6151526;23;20458;-96
2022/08/09 08:54:05;;;;;;;10.03;7.00;;;24.80;99.90;;;;;;6164656;23;20399;-96
2022/08/09 08:56:35;;;;;;;5.40;4.90;;;24.80;99.90;;;;;;6163916;23;20381;-96
2022/08/09 08:59:06;;;;;;;7.70;5.10;;;24.90;99.90;;;;;;6155899;23;20504;-90
2022/08/09 09:01:35;;;;;;;6.60;5.73;;;24.90;99.90;;;;;;6158042;23;20385;-90
2022/08/09 09:04:02;;;;;;;5.40;4.90;;;24.90;99.90;;;;;;6154419;23;20385;-90
2022/08/09 09:06:37;;;;;;;6.03;5.43;;;24.90;99.90;;;;;;6162151;23;20420;-96
2022/08/09 09:09:05;;;;;;;6.97;4.70;;;25.00;99.90;;;;;;6135618;23;20391;-96
2022/08/09 09:11:35;;;;;;;6.47;5.47;;;25.00;99.90;;;;;;6135049;23;20494;-96
2022/08/09 09:14:23;;;;;;;6.03;5.20;;;25.10;99.90;;;;;;6152965;23;20419;-96
2022/08/09 09:16:55;;;;;;;7.33;6.27;;;25.10;99.90;;;;;;6153467;23;20387;-96
2022/08/09 09:19:21;;;;;;;8.07;6.10;;;25.20;99.90;;;;;;6134366;23;20756;-90
2022/08/09 09:22:13;;;;;;;6.67;5.47;;;25.20;99.90;;;;;;6138257;23;20392;-90
2022/08/09 09:24:42;;;;;;;6.47;5.17;;;25.20;99.90;;;;;;6137385;23;20256;-91
2022/08/09 09:27:09;;;;;;;6.87;5.70;;;25.30;99.90;;;;;;6163758;23;20380;-90
2022/08/09 09:29:40;;;;;;;7.03;6.43;;;25.30;99.90;;;;;;6139950;23;20420;-96
2022/08/09 09:32:13;;;;;;;9.67;6.20;;;25.30;99.90;;;;;;6145425;23;20424;-96
2022/08/09 09:34:41;;;;;;;6.80;6.10;;;25.40;99.90;;;;;;6145877;23;20553;-96
2022/08/09 09:37:06;;;;;;;6.33;5.73;;;25.50;99.90;;;;;;6141226;23;20507;-91
2022/08/09 09:39:32;;;;;;;7.73;6.33;;;25.50;99.90;;;;;;6156172;23;20424;-90
2022/08/09 09:42:03;;;;;;;5.93;5.33;;;25.60;99.90;;;;;;6148817;23;20206;-96
2022/08/09 09:44:32;;;;;;;5.70;5.20;;;25.60;99.90;;;;;;6152722;23;20467;-96
2022/08/09 09:47:17;;;;;;;6.07;5.43;;;25.70;99.90;;;;;;6177119;23;20389;-96
2022/08/09 09:49:53;;;;;;;6.27;5.73;;;25.70;99.90;;;;;;6148881;23;20434;-91
2022/08/09 09:52:20;;;;;;;9.00;7.83;;;25.70;99.90;;;;;;6129339;23;20775;-92
2022/08/09 09:55:08;;;;;;;6.60;6.00;;;25.80;99.90;;;;;;6146718;23;20437;-96
2022/08/09 09:57:35;;;;;;;6.80;5.57;;;25.80;99.90;;;;;;6182553;23;20397;-96
2022/08/09 10:00:02;;;;;;;6.37;5.60;;;25.80;99.90;;;;;;6165764;23;20437;-92
2022/08/09 10:02:28;;;;;;;7.60;6.03;;;25.80;99.90;;;;;;6135697;23;20393;-93
2022/08/09 10:05:06;;;;;;;8.20;6.00;;;25.90;99.90;;;;;;6128604;23;20943;-96
2022/08/09 10:07:32;;;;;;;7.80;6.17;;;25.90;99.90;;;;;;6153195;23;20468;-93
2022/08/09 10:09:59;;;;;;;8.73;6.30;;;25.90;99.90;;;;;;6154146;23;20471;-96
2022/08/09 10:12:28;;;;;;;8.67;6.10;;;26.00;99.90;;;;;;6128301;23;20413;-92
2022/08/09 10:15:11;;;;;;;6.20;5.67;;;26.00;99.90;;;;;;6127445;23;20449;-96
2022/08/09 10:17:38;;;;;;;5.57;5.07;;;26.00;99.90;;;;;;6138555;23;20404;-96
2022/08/09 10:20:24;;;;;;;6.47;5.80;;;26.10;99.90;;;;;;6122266;23;20427;-91
2022/08/09 10:22:53;;;;;;;7.60;6.17;;;26.10;99.90;;;;;;6121632;23;20480;-93
2022/08/09 10:25:19;;;;;;;7.00;5.87;;;26.20;99.90;;;;;;6124262;23;20778;-96
2022/08/09 10:27:46;;;;;;;8.63;6.43;;;26.30;99.90;;;;;;6125468;23;20439;-93
2022/08/09 10:30:13;;;;;;;6.80;6.10;;;26.30;99.90;;;;;;6127474;23;20483;-94
2022/08/09 10:32:39;;;;;;;7.47;6.10;;;26.40;99.90;;;;;;6126256;23;20397;-96
2022/08/09 10:35:07;;;;;;;6.00;5.50;;;26.40;99.90;;;;;;6129242;23;20428;-96
2022/08/09 10:37:33;;;;;;;8.83;6.73;;;26.50;99.90;;;;;;6131576;23;20468;-96
2022/08/09 10:39:59;;;;;;;8.63;7.73;;;26.60;99.90;;;;;;6135462;23;20431;-96
2022/08/09 10:42:26;;;;;;;6.67;6.03;;;26.60;99.90;;;;;;6129050;23;20903;-96
2022/08/09 10:45:21;;;;;;;7.73;6.70;;;26.70;99.90;;;;;;6128760;23;20452;-96
2022/08/09 10:48:07;;;;;;;6.97;5.90;;;26.70;99.90;;;;;;6104856;23;20540;-96
2022/08/09 10:51:08;;;;;;;7.90;5.43;;;26.80;99.90;;;;;;6153864;23;20439;-96
2022/08/09 10:53:58;;;;;;;7.20;6.53;;;26.80;99.90;;;;;;6131503;23;20392;-93
2022/08/09 10:56:32;;;;;;;9.30;6.83;;;26.80;99.90;;;;;;6131455;23;20421;-92
2022/08/09 10:58:59;;;;;;;6.37;5.77;;;26.80;99.90;;;;;;6128169;23;20389;-96
2022/08/09 11:01:31;;;;;;;8.47;6.10;;;26.90;99.90;;;;;;6128280;23;20745;-93
2022/08/09 11:04:19;;;;;;;6.40;5.80;;;26.90;99.90;;;;;;6123262;23;20397;-93
2022/08/09 11:06:46;;;;;;;9.60;6.10;;;26.90;99.90;;;;;;6146320;23;20536;-96
2022/08/09 11:09:17;;;;;;;7.23;6.10;;;26.90;99.90;;;;;;6152955;23;20953;-96
2022/08/09 11:11:58;;;;;;;11.20;6.30;;;26.90;99.90;;;;;;6158401;23;20757;-92
2022/08/09 11:14:46;;;;;;;7.27;6.00;;;26.90;99.90;;;;;;6157251;23;20473;-96
2022/08/09 11:17:17;;;;;;;6.87;6.27;;;26.90;99.90;;;;;;6153996;23;20377;-92
2022/08/09 11:19:53;;;;;;;7.13;6.43;;;27.00;99.90;;;;;;6161013;23;20895;-96
2022/08/09 11:22:20;;;;;;;8.47;5.63;;;27.00;99.90;;;;;;6154648;23;20730;-96
2022/08/09 11:25:09;;;;;;;6.03;5.43;;;27.00;99.90;;;;;;6159750;23;20409;-93
2022/08/09 11:27:48;;;;;;;7.33;6.53;;;27.10;99.90;;;;;;6153446;23;20386;-95
2022/08/09 11:30:20;;;;;;;6.77;5.83;;;27.10;99.90;;;;;;6153733;23;20862;-96
2022/08/09 11:32:57;;;;;;;6.40;5.67;;;27.10;99.90;;;;;;6155975;23;20752;-93
2022/08/09 11:35:24;;;;;;;8.43;6.23;;;27.10;99.90;;;;;;6156535;23;20887;-92
2022/08/09 11:37:51;;;;;;;5.70;5.20;;;27.10;99.90;;;;;;6155573;23;20451;-93
2022/08/09 11:40:23;;;;;;;8.20;7.40;;;27.20;99.90;;;;;;6160885;23;20432;-96
2022/08/09 11:42:51;;;;;;;6.40;5.70;;;27.20;99.90;;;;;;6155720;23;20393;-92
2022/08/09 11:45:31;;;;;;;6.50;5.90;;;27.20;99.90;;;;;;6171658;23;20451;-96
2022/08/09 11:47:59;;;;;;;8.47;6.70;;;27.20;99.90;;;;;;6153585;23;20418;-93
2022/08/09 11:50:27;;;;;;;9.33;6.33;;;27.30;99.90;;;;;;6158952;23;20440;-93
2022/08/09 11:52:58;;;;;;;7.23;6.53;;;27.30;99.80;;;;;;6157716;23;20373;-96
2022/08/09 11:55:41;;;;;;;7.73;6.60;;;27.30;99.90;;;;;;6154338;23;20425;-96
2022/08/09 11:58:12;;;;;;;6.20;5.60;;;27.30;99.60;;;;;;6160601;23;20448;-96
2022/08/09 12:00:49;;;;;;;7.07;6.30;;;27.30;99.80;;;;;;6159960;23;20491;-92
2022/08/09 12:03:20;;;;;;;7.63;6.80;;;27.30;99.80;;;;;;6157386;23;20464;-92
2022/08/09 12:05:46;;;;;;;6.70;6.00;;;27.30;99.70;;;;;;6163818;23;21008;-93
2022/08/09 12:08:13;;;;;;;7.87;6.80;;;27.30;99.50;;;;;;6157767;23;20715;-93
2022/08/09 12:10:45;;;;;;;9.23;6.80;;;27.40;99.80;;;;;;6157717;23;20471;-93
2022/08/09 12:13:11;;;;;;;6.40;5.83;;;27.40;99.30;;;;;;6156145;23;20385;-93
2022/08/09 12:15:37;;;;;;;7.90;6.80;;;27.40;99.20;;;;;;6159110;23;20427;-91
2022/08/09 12:18:03;;;;;;;6.90;5.27;;;27.40;99.20;;;;;;6157513;23;20206;-96
2022/08/09 12:20:29;;;;;;;10.93;6.40;;;27.50;99.10;;;;;;6162285;23;20214;-94
2022/08/09 12:23:01;;;;;;;6.50;5.47;;;27.50;99.60;;;;;;6174052;23;20389;-93
2022/08/09 12:25:29;;;;;;;5.83;5.33;;;27.50;99.00;;;;;;6157102;23;20413;-93
2022/08/09 12:28:16;;;;;;;6.07;5.10;;;27.60;98.90;;;;;;6154752;23;20381;-95
2022/08/09 12:30:43;;;;;;;7.03;6.33;;;27.60;99.00;;;;;;6153434;23;20488;-96
2022/08/09 12:33:12;;;;;;;6.87;5.97;;;27.60;99.10;;;;;;6154529;23;20384;-93
2022/08/09 12:35:38;;;;;;;8.20;6.30;;;27.60;98.60;;;;;;6155044;23;20891;-96
2022/08/09 12:38:21;;;;;;;7.77;6.80;;;27.70;98.50;;;;;;6155644;23;20382;-96
2022/08/09 12:40:49;;;;;;;6.03;5.43;;;27.60;98.40;;;;;;6160401;23;20402;-94
2022/08/09 12:43:19;;;;;;;9.20;5.97;;;27.60;98.40;;;;;;6154088;23;20386;-93
2022/08/09 12:45:46;;;;;;;7.10;5.47;;;27.60;98.40;;;;;;6159607;23;20474;-93
2022/08/09 12:48:16;;;;;;;7.87;6.50;;;27.60;98.30;;;;;;6153795;23;20448;-96
2022/08/09 12:50:43;;;;;;;6.77;5.00;;;27.60;98.30;;;;;;6155489;23;20508;-92
2022/08/09 12:53:38;;;;;;;6.43;5.40;;;27.60;98.30;;;;;;6153883;23;20424;-96
2022/08/09 12:56:05;;;;;;;5.30;4.80;;;27.50;97.70;;;;;;6152342;23;20475;-96